Time;durP1;ratioP1;P1;durP2;ratioP2;P2;SDS_P1;SDS_P2;PMS_P1;PMS_P2;Temp;Humidity;BMP_temperature;BMP_pressure;BME280_temperature;BME280_humidity;BME280_pressure;Samples;Min_cycle;Max_cycle;Signal;HPM_P1;HPM_P2
2022/01/11 00:01:09;;;;;;;0.57;0.52;;;;;;;1.42;97.41;94043.25;4991716;28;20201;-73
2022/01/11 00:03:38;;;;;;;7.00;2.30;;;;;;;1.40;97.45;94027.53;4979041;28;20290;-72
2022/01/11 00:06:18;;;;;;;4.63;1.80;;;;;;;1.33;97.79;94040.44;4991755;28;20201;-72
2022/01/11 00:08:45;;;;;;;6.28;2.17;;;;;;;1.29;97.59;94038.59;4981054;28;20259;-72
2022/01/11 00:11:12;;;;;;;6.13;2.95;;;;;;;1.25;97.49;94046.38;4978717;28;20237;-72
2022/01/11 00:13:42;;;;;;;8.52;3.85;;;;;;;1.30;97.94;94062.31;4991157;28;20202;-73
2022/01/11 00:16:13;;;;;;;1.33;0.80;;;;;;;1.26;97.39;94050.63;4988502;28;20243;-73
2022/01/11 00:18:40;;;;;;;17.02;2.72;;;;;;;1.27;97.14;94054.88;4982706;28;20571;-73
2022/01/11 00:21:08;;;;;;;4.38;2.50;;;;;;;1.19;97.43;94058.19;4979015;28;20198;-74
2022/01/11 00:26:19;;;;;;;3.95;2.25;;;;;;;1.18;97.25;94059.25;4982101;28;20196;-73
2022/01/11 00:28:47;;;;;;;4.90;1.92;;;;;;;1.13;97.33;94067.31;4994806;28;20205;-72
2022/01/11 00:31:14;;;;;;;2.35;1.70;;;;;;;1.22;96.99;94065.63;4982910;28;20209;-72
2022/01/11 00:33:45;;;;;;;4.70;1.70;;;;;;;1.17;96.89;94060.34;4982080;28;20264;-73
2022/01/11 00:36:12;;;;;;;4.65;2.10;;;;;;;1.18;97.20;94064.59;4987800;28;20232;-72
2022/01/11 00:38:41;;;;;;;4.53;2.83;;;;;;;1.22;97.17;94065.63;4988681;28;20316;-72
2022/01/11 00:41:11;;;;;;;3.63;1.42;;;;;;;1.30;97.01;94067.66;4984137;28;20229;-72
2022/01/11 00:43:40;;;;;;;4.00;1.67;;;;;;;1.29;96.85;94065.28;4994960;28;20216;-74
2022/01/11 00:46:10;;;;;;;4.82;1.83;;;;;;;1.22;96.75;94078.97;4994983;28;20209;-72
2022/01/11 00:48:39;;;;;;;2.03;1.05;;;;;;;1.22;97.09;94070.97;4995257;28;20637;-72
2022/01/11 00:51:07;;;;;;;1.52;0.85;;;;;;;1.19;97.11;94076.84;4995380;28;20206;-73
2022/01/11 00:53:34;;;;;;;1.00;0.85;;;;;;;1.08;96.88;94080.69;4990954;28;20202;-73
2022/01/11 00:56:01;;;;;;;3.85;1.33;;;;;;;1.10;97.20;94089.19;4986359;28;20248;-73
2022/01/11 00:58:28;;;;;;;2.17;1.10;;;;;;;1.04;97.47;94085.00;4994805;28;20564;-75
2022/01/11 01:00:55;;;;;;;1.67;0.90;;;;;;;1.04;97.44;94095.66;4995097;28;20260;-72
2022/01/11 01:03:24;;;;;;;0.85;0.57;;;;;;;1.05;97.21;94091.94;4989816;28;20202;-72
2022/01/11 01:05:51;;;;;;;0.60;0.60;;;;;;;1.06;96.95;94096.19;4986731;28;20206;-74
2022/01/11 01:08:18;;;;;;;0.85;0.60;;;;;;;1.05;97.10;94099.94;4981577;28;20269;-73
2022/01/11 01:10:47;;;;;;;1.10;1.00;;;;;;;1.08;97.37;94096.72;4982849;28;20203;-72
2022/01/11 01:13:18;;;;;;;0.77;0.77;;;;;;;1.06;97.53;94096.97;4980747;28;20595;-72
2022/01/11 01:15:48;;;;;;;0.68;0.50;;;;;;;1.14;97.67;94105.44;4994677;28;20272;-73
2022/01/11 01:18:16;;;;;;;1.20;1.00;;;;;;;1.06;97.65;94109.53;4994650;28;20229;-73
2022/01/11 01:20:45;;;;;;;0.75;0.70;;;;;;;0.98;97.87;94100.25;4980737;28;20660;-73
2022/01/11 01:23:13;;;;;;;1.10;0.90;;;;;;;1.00;98.21;94105.28;4975061;28;20207;-72
2022/01/11 01:25:41;;;;;;;1.27;1.00;;;;;;;0.97;98.27;94108.50;4987759;28;20209;-73
2022/01/11 01:28:08;;;;;;;0.85;0.80;;;;;;;1.06;98.03;94109.53;4983080;28;20676;-73
2022/01/11 01:30:36;;;;;;;1.83;1.20;;;;;;;1.01;97.97;94122.88;4980044;28;20218;-72
2022/01/11 01:33:03;;;;;;;2.05;1.40;;;;;;;1.16;97.77;94124.63;4994487;28;20202;-72
2022/01/11 01:35:36;;;;;;;2.40;1.45;;;;;;;1.32;97.91;94129.53;4991695;28;20225;-72
2022/01/11 01:38:04;;;;;;;1.17;1.08;;;;;;;1.47;97.88;94125.13;4984421;28;20197;-72
2022/01/11 01:40:37;;;;;;;1.95;1.30;;;;;;;1.63;97.11;94124.69;4980910;28;20222;-73
2022/01/11 01:43:04;;;;;;;2.22;1.15;;;;;;;1.47;96.42;94125.13;4983503;28;20293;-72
2022/01/11 01:45:31;;;;;;;2.38;1.27;;;;;;;1.64;96.91;94125.47;4987399;28;20666;-72
2022/01/11 01:47:59;;;;;;;2.67;1.08;;;;;;;1.79;96.61;94119.94;4985545;28;20218;-74
2022/01/11 01:50:27;;;;;;;3.63;1.10;;;;;;;1.96;95.73;94124.81;4980831;28;20206;-73
2022/01/11 01:52:54;;;;;;;1.88;1.00;;;;;;;1.92;94.85;94127.25;4993889;28;20292;-73
2022/01/11 01:55:23;;;;;;;1.30;0.70;;;;;;;1.48;92.68;94132.06;4993677;28;20210;-73
2022/01/11 01:57:51;;;;;;;1.08;0.77;;;;;;;1.31;92.96;94133.28;4982066;28;20312;-73
2022/01/11 02:00:19;;;;;;;1.38;1.13;;;;;;;1.47;93.45;94138.47;4993226;28;20221;-73
2022/01/11 02:02:46;;;;;;;1.20;0.90;;;;;;;1.54;93.29;94136.25;4993841;28;20692;-74
2022/01/11 02:05:13;;;;;;;1.15;0.80;;;;;;;1.56;92.62;94139.44;4980647;28;20201;-73
2022/01/11 02:07:40;;;;;;;1.88;1.45;;;;;;;1.43;92.60;94136.34;4993107;28;20201;-73
2022/01/11 02:10:09;;;;;;;3.42;1.42;;;;;;;1.38;92.33;94144.41;4981054;28;20202;-74
2022/01/11 02:12:37;;;;;;;0.75;0.60;;;;;;;1.25;92.18;94145.06;4993314;28;20209;-74
2022/01/11 02:15:05;;;;;;;0.80;0.60;;;;;;;1.20;92.56;94142.47;4981361;28;20653;-74
2022/01/11 02:17:33;;;;;;;1.40;1.05;;;;;;;1.07;92.03;94145.78;4980246;28;20293;-74
2022/01/11 02:20:00;;;;;;;13.98;5.93;;;;;;;1.07;93.11;94145.78;4993749;28;20609;-73
2022/01/11 02:22:29;;;;;;;2.95;1.77;;;;;;;1.01;92.43;94152.22;4991407;28;20628;-73
2022/01/11 02:24:56;;;;;;;14.82;9.98;;;;;;;0.91;92.85;94161.09;4981611;28;20209;-73
2022/01/11 02:27:23;;;;;;;1.35;0.90;;;;;;;0.91;92.82;94158.44;4980380;28;20218;-73
2022/01/11 02:29:50;;;;;;;3.65;1.55;;;;;;;0.96;93.00;94154.91;4985555;28;20203;-73
2022/01/11 02:32:17;;;;;;;1.48;1.08;;;;;;;0.99;92.74;94160.50;4975027;28;20709;-73
2022/01/11 02:34:44;;;;;;;1.50;1.00;;;;;;;1.10;93.36;94158.53;4993065;28;20256;-73
2022/01/11 02:37:11;;;;;;;1.13;0.70;;;;;;;1.24;93.26;94151.47;4993200;28;20226;-73
2022/01/11 02:39:39;;;;;;;1.00;0.60;;;;;;;1.48;93.00;94164.88;4992675;28;20700;-73
2022/01/11 02:42:07;;;;;;;1.17;0.70;;;;;;;1.59;91.79;94165.56;4992507;28;20198;-73
2022/01/11 02:44:34;;;;;;;0.98;0.52;;;;;;;1.63;92.32;94174.59;4992935;28;20561;-73
2022/01/11 02:47:01;;;;;;;0.85;0.68;;;;;;;1.48;91.68;94172.88;4979847;28;20210;-74
2022/01/11 02:49:28;;;;;;;1.02;0.45;;;;;;;1.55;91.45;94170.66;4983592;28;20237;-73
2022/01/11 02:51:55;;;;;;;2.83;1.50;;;;;;;1.46;92.06;94174.22;4989094;28;20205;-73
2022/01/11 02:54:22;;;;;;;1.17;0.60;;;;;;;1.46;91.83;94167.03;4992477;28;20237;-74
2022/01/11 02:56:51;;;;;;;4.30;1.58;;;;;;;1.24;91.43;94170.16;4977082;28;20237;-72
2022/01/11 02:59:18;;;;;;;4.68;2.20;;;;;;;1.03;91.34;94171.41;4984237;28;20202;-72
2022/01/11 03:01:45;;;;;;;1.23;0.47;;;;;;;1.02;90.21;94175.94;4992385;28;20260;-73
2022/01/11 03:04:12;;;;;;;0.80;0.57;;;;;;;0.82;90.59;94181.41;4992779;28;20216;-74
2022/01/11 03:06:39;;;;;;;1.95;0.70;;;;;;;0.84;90.64;94176.59;4987311;28;20206;-74
2022/01/11 03:09:06;;;;;;;1.80;0.90;;;;;;;0.80;91.52;94186.25;4984760;28;20206;-74
2022/01/11 03:11:34;;;;;;;1.70;0.50;;;;;;;0.74;91.01;94191.88;4992401;28;20209;-73
2022/01/11 03:14:04;;;;;;;3.28;1.52;;;;;;;0.63;90.79;94185.81;4980773;28;20282;-74
2022/01/11 03:16:31;;;;;;;1.77;1.20;;;;;;;0.57;90.97;94185.03;4979323;28;20233;-73
2022/01/11 03:18:58;;;;;;;4.35;2.30;;;;;;;0.58;91.64;94189.31;4992680;28;20212;-73
2022/01/11 03:21:26;;;;;;;8.30;4.60;;;;;;;0.64;91.92;94201.53;4978812;28;20207;-74
2022/01/11 03:23:54;;;;;;;1.70;0.88;;;;;;;0.57;91.05;94198.38;4991909;28;20479;-74
2022/01/11 03:26:21;;;;;;;2.83;1.77;;;;;;;0.53;91.26;94191.22;4979643;28;20233;-73
2022/01/11 03:28:48;;;;;;;8.55;3.53;;;;;;;0.57;91.92;94203.69;4992165;28;20202;-74
2022/01/11 03:31:19;;;;;;;0.90;0.70;;;;;;;0.71;91.34;94196.69;4979102;28;20272;-74
2022/01/11 03:33:46;;;;;;;1.25;0.73;;;;;;;0.83;90.92;94198.19;4977138;28;20206;-74
2022/01/11 03:36:12;;;;;;;0.75;0.68;;;;;;;0.85;91.23;94194.19;4972537;28;20281;-74
2022/01/11 03:38:39;;;;;;;0.88;0.60;;;;;;;0.85;89.12;94196.06;4985760;28;20228;-74
2022/01/11 03:41:06;;;;;;;0.80;0.50;;;;;;;0.91;89.77;94203.75;4979890;28;20283;-74
2022/01/11 03:43:33;;;;;;;0.60;0.60;;;;;;;1.00;89.63;94195.94;4990819;28;20201;-74
2022/01/11 03:46:00;;;;;;;1.25;0.68;;;;;;;1.00;89.34;94202.09;4980369;28;20214;-74
2022/01/11 03:48:29;;;;;;;0.40;0.40;;;;;;;1.03;89.19;94206.88;4978862;28;20601;-74
2022/01/11 03:50:56;;;;;;;2.10;0.95;;;;;;;1.02;88.88;94202.59;4991365;28;20276;-74
2022/01/11 03:53:28;;;;;;;0.60;0.60;;;;;;;1.14;89.07;94207.56;4991216;28;20685;-74
2022/01/11 03:58:42;;;;;;;0.60;0.60;;;;;;;0.99;88.09;94215.69;4987016;28;20672;-74
2022/01/11 04:01:09;;;;;;;0.75;0.63;;;;;;;1.12;88.29;94215.06;4990952;28;20206;-74
2022/01/11 04:03:37;;;;;;;0.50;0.50;;;;;;;1.01;89.32;94216.22;4978359;28;20202;-75
2022/01/11 04:06:04;;;;;;;1.23;0.68;;;;;;;1.06;88.87;94216.97;4991505;28;20194;-74
2022/01/11 04:08:31;;;;;;;0.50;0.50;;;;;;;1.15;89.12;94219.03;4992090;28;20615;-74
2022/01/11 04:10:58;;;;;;;0.77;0.60;;;;;;;1.19;88.56;94228.88;4978662;28;20213;-74
2022/01/11 04:13:25;;;;;;;0.60;0.50;;;;;;;1.31;87.50;94229.31;4983599;28;20198;-74
2022/01/11 04:15:51;;;;;;;0.55;0.47;;;;;;;1.19;86.28;94234.22;4985541;28;20576;-74
2022/01/11 04:18:18;;;;;;;1.10;0.50;;;;;;;1.14;86.66;94238.78;4990752;28;20214;-74
2022/01/11 04:20:47;;;;;;;1.17;0.50;;;;;;;1.18;87.04;94234.50;4991617;28;20256;-74
2022/01/11 04:23:13;;;;;;;5.45;1.85;;;;;;;1.26;87.44;94245.34;4984431;28;20202;-74
2022/01/11 04:25:41;;;;;;;1.05;0.50;;;;;;;0.81;87.77;94245.69;4984514;28;20264;-75
2022/01/11 04:28:08;;;;;;;0.73;0.55;;;;;;;0.93;87.84;94264.81;4971770;28;20229;-74
2022/01/11 04:30:37;;;;;;;2.83;0.80;;;;;;;1.00;88.42;94259.94;4984880;28;20206;-73
2022/01/11 04:33:04;;;;;;;1.55;0.80;;;;;;;0.93;87.98;94264.81;4980122;28;20208;-75
2022/01/11 04:35:31;;;;;;;0.68;0.68;;;;;;;1.00;88.17;94270.63;4978424;28;20202;-76
2022/01/11 04:38:00;;;;;;;0.68;0.60;;;;;;;0.97;88.15;94271.16;4982793;28;20244;-75
2022/01/11 04:40:27;;;;;;;1.25;0.70;;;;;;;0.95;88.67;94266.13;4985116;28;20225;-78
2022/01/11 04:42:54;;;;;;;2.22;1.10;;;;;;;1.05;89.01;94267.94;4980304;28;20208;-79
2022/01/11 04:45:21;;;;;;;1.40;0.70;;;;;;;1.04;89.37;94282.34;4991245;28;20198;-78
2022/01/11 04:47:52;;;;;;;1.70;0.80;;;;;;;0.93;88.68;94283.47;4982715;28;20217;-74
2022/01/11 04:50:19;;;;;;;1.00;0.65;;;;;;;0.93;86.93;94281.59;4984790;28;20328;-75
2022/01/11 04:52:46;;;;;;;0.70;0.50;;;;;;;1.01;86.25;94282.88;4981474;28;20220;-74
2022/01/11 04:55:14;;;;;;;0.55;0.50;;;;;;;1.05;87.37;94289.25;4975050;28;20206;-75
2022/01/11 04:57:41;;;;;;;1.08;0.82;;;;;;;1.11;87.59;94293.47;4981604;28;20240;-75
2022/01/11 05:00:09;;;;;;;1.13;0.80;;;;;;;1.19;87.91;94292.91;4978502;28;20260;-75
2022/01/11 05:02:36;;;;;;;1.17;1.00;;;;;;;1.23;88.31;94301.91;4979521;28;20203;-75
2022/01/11 05:05:03;;;;;;;0.90;0.55;;;;;;;1.14;87.82;94302.78;4985532;28;20210;-75
2022/01/11 05:07:30;;;;;;;0.32;0.32;;;;;;;0.76;84.62;94296.34;4986558;28;20210;-74
2022/01/11 05:09:57;;;;;;;0.60;0.60;;;;;;;0.71;84.93;94302.50;4981894;28;20240;-75
2022/01/11 05:12:25;;;;;;;3.13;0.57;;;;;;;0.54;83.51;94305.53;4982360;28;20544;-74
2022/01/11 05:14:52;;;;;;;0.38;0.38;;;;;;;0.46;83.15;94303.41;4994082;28;20635;-74
2022/01/11 05:17:19;;;;;;;0.98;0.38;;;;;;;0.47;85.43;94307.66;4994535;28;20229;-74
2022/01/11 05:19:46;;;;;;;0.30;0.30;;;;;;;0.53;85.38;94311.91;4988152;28;20198;-74
2022/01/11 05:22:12;;;;;;;0.60;0.55;;;;;;;0.82;87.14;94316.59;4987668;28;20675;-75
2022/01/11 05:24:39;;;;;;;1.23;0.77;;;;;;;0.76;85.92;94321.13;4993932;28;20209;-74
2022/01/11 05:27:07;;;;;;;20.25;8.73;;;;;;;0.88;86.40;94326.16;4993838;28;20210;-75
2022/01/11 05:29:35;;;;;;;2.08;0.90;;;;;;;0.83;84.79;94331.50;4994023;28;20213;-74
2022/01/11 05:32:03;;;;;;;1.27;0.80;;;;;;;0.69;85.67;94329.41;4994194;28;20232;-75
2022/01/11 05:34:30;;;;;;;1.20;0.70;;;;;;;0.59;84.99;94328.66;4994434;28;20240;-75
2022/01/11 05:36:57;;;;;;;1.30;1.08;;;;;;;0.81;86.11;94320.34;4993598;28;20233;-75
2022/01/11 05:39:24;;;;;;;0.77;0.60;;;;;;;0.67;83.55;94336.91;4993998;28;20233;-75
2022/01/11 05:41:50;;;;;;;0.70;0.70;;;;;;;0.71;84.68;94335.28;4994160;28;20221;-75
2022/01/11 05:44:17;;;;;;;1.17;0.88;;;;;;;0.70;85.88;94336.34;4994280;28;20217;-75
2022/01/11 05:46:46;;;;;;;1.98;1.05;;;;;;;0.89;85.73;94338.41;4993400;28;20225;-75
2022/01/11 05:49:12;;;;;;;1.52;0.93;;;;;;;0.98;86.28;94342.88;4993815;28;20292;-76
2022/01/11 05:51:39;;;;;;;1.40;1.00;;;;;;;0.97;86.02;94337.81;4994187;28;20243;-76
2022/01/11 05:54:06;;;;;;;1.17;0.80;;;;;;;1.08;86.04;94352.72;4993797;28;20213;-76
2022/01/11 05:56:33;;;;;;;1.08;0.60;;;;;;;1.22;83.74;94337.69;4993801;28;20268;-75
2022/01/11 05:59:00;;;;;;;3.80;2.08;;;;;;;1.28;83.64;94347.25;4993282;28;20202;-75
2022/01/11 06:01:27;;;;;;;3.00;1.63;;;;;;;1.25;82.92;94345.13;4993739;28;20212;-75
2022/01/11 06:03:55;;;;;;;4.30;2.05;;;;;;;1.28;82.77;94344.59;4993594;28;20209;-75
2022/01/11 06:06:22;;;;;;;6.68;3.08;;;;;;;1.27;82.36;94355.53;4993537;28;20212;-75
2022/01/11 06:08:49;;;;;;;2.92;2.25;;;;;;;1.33;82.32;94354.44;4993053;28;20301;-75
2022/01/11 06:11:16;;;;;;;6.63;2.17;;;;;;;1.27;83.28;94356.31;4993287;28;20288;-74
2022/01/11 06:13:43;;;;;;;2.80;1.38;;;;;;;1.31;83.28;94368.06;4983239;28;20205;-75
2022/01/11 06:16:10;;;;;;;2.50;1.25;;;;;;;1.19;82.99;94362.25;4987208;28;20218;-75
2022/01/11 06:18:37;;;;;;;0.60;0.60;;;;;;;1.26;82.63;94373.41;4983386;28;20226;-74
2022/01/11 06:21:06;;;;;;;4.63;1.10;;;;;;;1.36;83.79;94381.38;4976604;28;20201;-74
2022/01/11 06:23:32;;;;;;;1.05;0.77;;;;;;;1.21;83.37;94383.31;4983737;28;20201;-74
2022/01/11 06:25:59;;;;;;;3.13;1.13;;;;;;;1.21;83.28;94378.78;4985600;28;20227;-74
2022/01/11 06:28:26;;;;;;;1.70;0.93;;;;;;;1.37;82.64;94382.94;4992834;28;20201;-73
2022/01/11 06:30:53;;;;;;;3.15;0.88;;;;;;;1.23;82.33;94391.84;4987928;28;20701;-74
2022/01/11 06:33:20;;;;;;;1.90;0.93;;;;;;;1.17;80.99;94393.72;4984883;28;20582;-74
2022/01/11 06:35:47;;;;;;;2.65;0.98;;;;;;;1.11;81.89;94394.81;4979780;28;20921;-74
2022/01/11 06:38:15;;;;;;;1.27;0.82;;;;;;;1.18;80.63;94392.66;4980798;28;20284;-74
2022/01/11 06:40:43;;;;;;;2.80;1.17;;;;;;;1.19;80.02;94396.94;4991387;28;20473;-74
2022/01/11 06:43:10;;;;;;;3.08;1.88;;;;;;;1.23;81.24;94397.97;4992686;28;20288;-75
2022/01/11 06:45:38;;;;;;;1.38;0.80;;;;;;;1.06;80.44;94397.53;4992990;28;20206;-74
2022/01/11 06:48:05;;;;;;;3.45;1.40;;;;;;;1.07;80.96;94409.78;4989898;28;20206;-74
2022/01/11 06:50:32;;;;;;;3.20;1.25;;;;;;;1.04;81.09;94405.00;4993038;28;20224;-74
2022/01/11 06:52:59;;;;;;;3.10;1.30;;;;;;;1.08;81.15;94405.25;4992127;28;20213;-74
2022/01/11 06:55:27;;;;;;;2.50;0.88;;;;;;;1.06;80.35;94403.66;4992548;28;20234;-73
2022/01/11 06:57:54;;;;;;;0.93;0.60;;;;;;;0.88;78.44;94420.25;4992200;28;20240;-74
2022/01/11 07:00:22;;;;;;;1.85;0.90;;;;;;;0.85;79.00;94425.31;4979457;28;20206;-74
2022/01/11 07:02:50;;;;;;;2.38;1.30;;;;;;;0.93;79.88;94416.78;4991561;28;20213;-73
2022/01/11 07:05:17;;;;;;;2.55;0.90;;;;;;;1.14;79.66;94420.94;4992425;28;20300;-74
2022/01/11 07:07:45;;;;;;;1.50;0.90;;;;;;;0.90;78.00;94441.31;4992408;28;20201;-74
2022/01/11 07:10:12;;;;;;;2.22;1.20;;;;;;;1.67;91.71;94423.88;4992138;28;20220;-76
2022/01/11 07:12:40;;;;;;;2.35;0.70;;;;;;;1.03;79.31;94441.53;4992046;28;20209;-74
2022/01/11 07:15:07;;;;;;;1.13;0.80;;;;;;;0.98;79.20;94443.41;4991629;28;20216;-74
2022/01/11 07:17:34;;;;;;;1.10;0.73;;;;;;;1.04;78.35;94437.00;4991907;28;20233;-74
2022/01/11 07:20:01;;;;;;;2.22;0.82;;;;;;;0.99;78.45;94440.47;4991572;28;20202;-74
2022/01/11 07:22:28;;;;;;;1.13;0.90;;;;;;;0.91;78.88;94435.72;4992190;28;20661;-73
2022/01/11 07:24:55;;;;;;;0.57;0.55;;;;;;;0.80;76.98;94463.47;4991701;28;20209;-74
2022/01/11 07:27:22;;;;;;;1.13;0.40;;;;;;;0.56;78.70;94463.25;4992405;28;20217;-74
2022/01/11 07:29:51;;;;;;;0.35;0.35;;;;;;;0.47;79.59;94467.53;4991529;28;20209;-73
2022/01/11 07:32:18;;;;;;;1.00;0.68;;;;;;;0.54;80.32;94465.41;4991784;28;20263;-74
2022/01/11 07:34:45;;;;;;;0.38;0.38;;;;;;;0.42;79.84;94467.53;4992146;28;20220;-74
2022/01/11 07:37:12;;;;;;;1.80;0.93;;;;;;;0.44;78.70;94481.38;4991632;28;20642;-73
2022/01/11 07:39:39;;;;;;;1.20;0.65;;;;;;;0.43;78.91;94473.66;4991821;28;20210;-74
2022/01/11 07:42:06;;;;;;;1.33;0.70;;;;;;;0.47;79.04;94483.50;4991328;28;20614;-74
2022/01/11 07:44:33;;;;;;;1.02;0.60;;;;;;;0.23;79.36;94491.25;4991645;28;20700;-74
2022/01/11 07:47:02;;;;;;;3.38;1.17;;;;;;;0.17;80.68;94486.97;4991751;28;20201;-73
2022/01/11 07:49:29;;;;;;;1.30;0.90;;;;;;;0.23;80.36;94491.25;4991386;28;20233;-74
2022/01/11 07:51:56;;;;;;;2.67;1.70;;;;;;;0.31;80.45;94497.91;4991441;28;20213;-73
2022/01/11 07:54:24;;;;;;;0.77;0.50;;;;;;;0.23;80.84;94485.13;4991719;28;20206;-74
2022/01/11 07:56:51;;;;;;;1.50;0.98;;;;;;;0.17;80.49;94496.81;4991961;28;20217;-74
2022/01/11 07:59:18;;;;;;;0.77;0.70;;;;;;;0.25;80.39;94504.31;4991504;28;20229;-75
2022/01/11 08:01:45;;;;;;;1.02;0.70;;;;;;;0.22;80.54;94513.63;4990931;28;20307;-75
2022/01/11 08:04:14;;;;;;;0.88;0.63;;;;;;;0.35;80.85;94513.09;4991333;28;20218;-75
2022/01/11 08:06:41;;;;;;;1.00;0.80;;;;;;;0.31;81.08;94513.88;4991388;28;20205;-74
2022/01/11 08:09:08;;;;;;;0.98;0.80;;;;;;;0.31;81.41;94508.56;4991253;28;20213;-75
2022/01/11 08:11:35;;;;;;;2.22;0.70;;;;;;;0.50;80.81;94506.16;4991632;28;20295;-74
2022/01/11 08:14:02;;;;;;;1.50;1.08;;;;;;;0.71;81.05;94507.72;4991315;28;20205;-74
2022/01/11 08:16:29;;;;;;;0.55;0.40;;;;;;;0.57;80.93;94512.81;4991438;28;20217;-74
2022/01/11 08:18:56;;;;;;;1.90;1.00;;;;;;;0.48;80.67;94524.28;4991522;28;20252;-74
2022/01/11 08:21:24;;;;;;;0.57;0.45;;;;;;;0.51;80.78;94529.88;4990610;28;20217;-74
2022/01/11 08:23:51;;;;;;;1.38;0.73;;;;;;;0.40;81.28;94533.63;4991412;28;20205;-74
2022/01/11 08:26:18;;;;;;;2.28;1.15;;;;;;;0.36;81.35;94527.22;4991391;28;20208;-75
2022/01/11 08:28:45;;;;;;;10.27;5.45;;;;;;;0.39;82.13;94532.00;4990777;28;20206;-74
2022/01/11 08:31:12;;;;;;;4.85;2.25;;;;;;;0.29;81.41;94539.97;4991040;28;20210;-73
2022/01/11 08:33:39;;;;;;;8.82;4.20;;;;;;;0.50;82.77;94546.13;4990876;28;20202;-74
2022/01/11 08:36:07;;;;;;;8.48;3.70;;;;;;;0.43;82.39;94537.59;4991238;28;20702;-75
2022/01/11 08:38:36;;;;;;;6.22;3.10;;;;;;;0.30;82.64;94544.25;4990870;28;20241;-74
2022/01/11 08:41:03;;;;;;;13.57;6.28;;;;;;;0.36;81.78;94537.88;4985466;28;20356;-74
2022/01/11 08:43:30;;;;;;;1.65;0.77;;;;;;;0.24;80.69;94547.97;4989673;28;20213;-74
2022/01/11 08:45:57;;;;;;;0.63;0.63;;;;;;;0.25;81.76;94562.91;4993754;28;20216;-74
2022/01/11 08:48:24;;;;;;;2.38;1.10;;;;;;;0.07;82.38;94556.22;4994726;28;20311;-75
2022/01/11 08:50:53;;;;;;;1.98;1.50;;;;;;;0.22;82.25;94558.09;4995157;28;20229;-75
2022/01/11 08:53:20;;;;;;;2.00;1.35;;;;;;;0.18;83.27;94562.34;4994078;28;20221;-75
2022/01/11 08:55:49;;;;;;;1.65;1.23;;;;;;;0.31;82.57;94572.47;4994176;28;20664;-75
2022/01/11 08:58:16;;;;;;;11.93;6.13;;;;;;;0.02;83.50;94574.03;4994266;28;20233;-74
2022/01/11 09:00:43;;;;;;;7.85;4.05;;;;;;;0.08;83.35;94581.78;4995184;28;20213;-77
2022/01/11 09:03:11;;;;;;;2.58;1.00;;;;;;;0.00;84.10;94582.31;4994190;28;20213;-74
2022/01/11 09:05:37;;;;;;;1.45;1.30;;;;;;;-0.06;84.71;94589.47;4994890;28;20212;-74
2022/01/11 09:08:05;;;;;;;1.95;1.23;;;;;;;-0.05;84.17;94591.06;4994398;28;20224;-75
2022/01/11 09:10:32;;;;;;;2.88;2.58;;;;;;;0.00;85.14;94585.72;4994952;28;20334;-74
2022/01/11 09:13:00;;;;;;;1.70;1.05;;;;;;;-0.04;83.88;94587.34;4994438;28;20324;-74
2022/01/11 09:15:28;;;;;;;0.20;0.20;;;;;;;-0.13;83.36;94583.56;4994312;28;20214;-74
2022/01/11 09:17:55;;;;;;;4.28;1.98;;;;;;;0.02;85.43;94587.34;4994331;28;20320;-74
2022/01/11 09:20:22;;;;;;;2.38;1.33;;;;;;;0.05;84.54;94595.59;4994430;28;20213;-75
2022/01/11 09:22:49;;;;;;;2.92;1.50;;;;;;;-0.04;82.45;94592.66;4994226;28;20585;-75
2022/01/11 09:25:16;;;;;;;1.33;1.00;;;;;;;-0.05;81.41;94609.69;4994152;28;20198;-73
2022/01/11 09:27:43;;;;;;;0.95;0.85;;;;;;;-0.15;81.98;94601.69;4994697;28;20434;-75
2022/01/11 09:30:14;;;;;;;1.60;1.08;;;;;;;-0.12;81.27;94595.81;4994193;28;20217;-75
2022/01/11 09:32:42;;;;;;;0.50;0.50;;;;;;;-0.13;82.20;94599.53;4993865;28;20209;-74
2022/01/11 09:35:11;;;;;;;0.93;0.85;;;;;;;-0.09;80.19;94600.63;4993840;28;20217;-75
2022/01/11 09:37:39;;;;;;;1.40;0.60;;;;;;;-0.03;80.38;94594.28;4994421;28;20272;-74
2022/01/11 09:40:08;;;;;;;0.80;0.70;;;;;;;-0.12;79.97;94601.16;4994010;28;20205;-72
2022/01/11 09:42:36;;;;;;;1.23;0.73;;;;;;;-0.07;80.37;94606.50;4981446;28;20665;-74
2022/01/11 09:45:04;;;;;;;0.80;0.68;;;;;;;-0.20;79.68;94593.69;4994012;28;20206;-74
2022/01/11 09:47:32;;;;;;;1.08;0.80;;;;;;;-0.21;79.39;94592.06;4994003;28;20237;-74
2022/01/11 09:49:59;;;;;;;2.10;1.20;;;;;;;-0.07;79.85;94611.81;4993366;28;20658;-74
2022/01/11 09:52:28;;;;;;;1.40;1.05;;;;;;;-0.05;79.99;94611.56;4993157;28;20202;-74
2022/01/11 09:54:55;;;;;;;0.88;0.60;;;;;;;-0.17;80.33;94608.31;4993325;28;20221;-74
2022/01/11 09:57:23;;;;;;;1.90;0.85;;;;;;;-0.20;77.98;94612.31;4993620;28;20686;-74
2022/01/11 09:59:50;;;;;;;2.05;1.20;;;;;;;-0.22;78.19;94616.28;4993889;28;20237;-74
2022/01/11 10:02:17;;;;;;;0.88;0.73;;;;;;;-0.14;78.77;94616.59;4994040;28;20395;-74
2022/01/11 10:04:46;;;;;;;1.05;0.80;;;;;;;-0.01;78.91;94624.09;4993326;28;20216;-74
2022/01/11 10:07:13;;;;;;;1.95;1.33;;;;;;;0.23;78.91;94618.28;4993620;28;20657;-75
2022/01/11 10:09:47;;;;;;;0.45;0.45;;;;;;;0.04;78.35;94619.84;4993146;28;20224;-74
2022/01/11 10:12:14;;;;;;;1.73;0.75;;;;;;;-0.04;77.60;94618.50;4993488;28;20202;-74
2022/01/11 10:14:47;;;;;;;0.68;0.40;;;;;;;-0.09;77.67;94619.25;4993673;28;20224;-74
2022/01/11 10:17:18;;;;;;;0.43;0.43;;;;;;;-0.10;77.64;94615.00;4993707;28;20217;-75
2022/01/11 10:19:48;;;;;;;1.30;0.40;;;;;;;-0.21;76.65;94608.03;4993327;28;20228;-73
2022/01/11 10:22:19;;;;;;;1.52;0.80;;;;;;;-0.03;78.67;94626.22;4993374;28;20221;-74
2022/01/11 10:24:47;;;;;;;2.67;1.70;;;;;;;0.17;78.23;94627.31;4993371;28;20206;-74
2022/01/11 10:27:17;;;;;;;4.00;1.30;;;;;;;0.34;77.46;94623.38;4992449;28;20213;-74
2022/01/11 10:29:46;;;;;;;1.38;0.88;;;;;;;0.11;77.45;94636.38;4993078;28;20209;-74
2022/01/11 10:32:20;;;;;;;1.52;1.02;;;;;;;-0.12;76.01;94627.75;4993463;28;20229;-73
2022/01/11 10:34:51;;;;;;;2.22;1.10;;;;;;;-0.10;78.01;94620.31;4992934;28;20221;-74
2022/01/11 10:37:30;;;;;;;4.50;1.05;;;;;;;0.32;78.49;94635.34;4992626;28;20644;-74
2022/01/11 10:40:05;;;;;;;4.28;1.83;;;;;;;0.32;77.29;94625.50;4992830;28;20225;-74
2022/01/11 10:42:34;;;;;;;3.25;0.95;;;;;;;0.37;75.61;94632.72;4980079;28;20252;-74
2022/01/11 10:45:04;;;;;;;1.58;0.88;;;;;;;0.10;76.69;94629.44;4993139;28;20301;-75
2022/01/11 10:47:33;;;;;;;2.38;1.30;;;;;;;0.42;77.89;94637.22;4992961;28;20213;-75
2022/01/11 10:50:10;;;;;;;2.20;0.90;;;;;;;0.65;77.99;94629.56;4991905;28;20241;-74
2022/01/11 10:52:39;;;;;;;2.90;1.17;;;;;;;0.25;77.42;94632.16;4992534;28;20206;-73
2022/01/11 10:55:08;;;;;;;5.60;1.48;;;;;;;0.11;76.30;94636.38;4992473;28;20216;-73
2022/01/11 10:57:38;;;;;;;2.28;1.25;;;;;;;-0.26;76.98;94620.50;4992092;28;20229;-74
2022/01/11 11:00:15;;;;;;;7.63;3.10;;;;;;;-0.17;77.02;94634.94;4992148;28;20461;-73
2022/01/11 11:02:45;;;;;;;0.40;0.40;;;;;;;-0.44;75.27;94632.44;4991470;28;20205;-73
2022/01/11 11:05:16;;;;;;;2.45;0.95;;;;;;;-0.51;77.00;94634.50;4991491;28;20567;-72
2022/01/11 11:07:45;;;;;;;2.38;0.85;;;;;;;-0.48;77.09;94634.81;4991846;28;20584;-74
2022/01/11 11:10:12;;;;;;;7.13;1.30;;;;;;;-0.32;76.72;94629.56;4992434;28;20206;-73
2022/01/11 11:12:39;;;;;;;3.17;2.03;;;;;;;-0.05;77.05;94631.00;4992378;28;20658;-74
2022/01/11 11:15:07;;;;;;;2.53;0.80;;;;;;;0.03;76.76;94623.56;4991499;28;20219;-74
2022/01/11 11:17:35;;;;;;;5.75;1.45;;;;;;;0.37;77.13;94630.03;4991530;28;20206;-73
2022/01/11 11:20:06;;;;;;;2.90;1.55;;;;;;;0.61;76.74;94620.47;4991547;28;20230;-74
2022/01/11 11:22:35;;;;;;;2.35;1.35;;;;;;;0.60;73.75;94623.41;4992249;28;20194;-74
2022/01/11 11:25:03;;;;;;;1.90;1.05;;;;;;;0.44;74.24;94619.91;4991915;28;20704;-75
2022/01/11 11:27:31;;;;;;;3.13;1.25;;;;;;;0.05;72.90;94618.78;4991336;28;20297;-74
2022/01/11 11:29:58;;;;;;;2.03;1.30;;;;;;;-0.07;74.38;94624.31;4992064;28;20206;-74
2022/01/11 11:32:25;;;;;;;1.55;1.25;;;;;;;-0.01;75.31;94637.41;4991294;28;20201;-72
2022/01/11 11:34:52;;;;;;;11.65;5.22;;;;;;;0.21;76.69;94636.41;4986532;28;20217;-73
2022/01/11 11:37:23;;;;;;;4.18;2.20;;;;;;;0.44;75.77;94646.56;4989798;28;20220;-74
2022/01/11 11:39:57;;;;;;;1.67;1.30;;;;;;;0.42;72.85;94632.69;4981582;28;20226;-75
2022/01/11 11:42:25;;;;;;;2.40;1.35;;;;;;;0.71;74.27;94641.00;4991383;28;20204;-74
2022/01/11 11:44:52;;;;;;;2.70;1.65;;;;;;;0.83;73.78;94648.72;4991787;28;20213;-75
2022/01/11 11:47:30;;;;;;;2.95;1.73;;;;;;;0.80;74.27;94647.41;4986680;28;20213;-74
2022/01/11 11:50:00;;;;;;;2.53;1.48;;;;;;;0.76;71.91;94653.53;4985358;28;20301;-74